createdAt,value
2023-05-15T00:01:42.359Z,99.90
2023-05-15T00:04:09.241Z,99.90
2023-05-15T00:06:36.092Z,99.90
2023-05-15T00:09:04.448Z,99.90
2023-05-15T00:11:31.405Z,99.90
2023-05-15T00:13:58.197Z,99.90
2023-05-15T00:16:25.098Z,99.90
2023-05-15T00:18:52.050Z,99.90
2023-05-15T00:21:18.900Z,99.90
2023-05-15T00:23:47.483Z,99.90
2023-05-15T00:26:15.778Z,99.90
2023-05-15T00:28:42.663Z,99.90
2023-05-15T00:31:09.613Z,99.90
2023-05-15T00:33:36.522Z,99.90
2023-05-15T00:36:03.565Z,99.90
2023-05-15T00:38:30.976Z,99.90
2023-05-15T00:40:57.987Z,99.90
2023-05-15T00:43:26.690Z,99.90
2023-05-15T00:45:54.179Z,99.90
2023-05-15T00:48:22.695Z,99.90
2023-05-15T00:50:51.525Z,99.90
2023-05-15T00:53:19.032Z,99.90
2023-05-15T00:55:46.705Z,99.90
2023-05-15T00:58:15.363Z,99.90
2023-05-15T01:00:45.584Z,99.90
2023-05-15T01:03:12.782Z,99.90
2023-05-15T01:05:39.614Z,99.90
2023-05-15T01:08:11.290Z,99.90
2023-05-15T01:10:39.636Z,99.90
2023-05-15T01:13:07.929Z,99.90
2023-05-15T01:15:34.842Z,99.90
2023-05-15T01:18:03.441Z,99.90
2023-05-15T01:20:34.118Z,99.90
2023-05-15T01:23:11.687Z,99.90
2023-05-15T01:25:55.094Z,99.90
2023-05-15T01:28:28.290Z,99.90
2023-05-15T01:30:55.925Z,99.90
2023-05-15T01:33:28.739Z,99.90
2023-05-15T01:36:01.421Z,99.90
2023-05-15T01:38:36.883Z,99.90
2023-05-15T01:41:10.342Z,99.90
2023-05-15T01:43:42.179Z,99.90
2023-05-15T01:46:12.874Z,99.90
2023-05-15T01:48:41.282Z,99.90
2023-05-15T01:51:10.799Z,99.90
2023-05-15T01:53:40.137Z,99.90
2023-05-15T01:56:09.412Z,99.90
2023-05-15T01:58:39.759Z,99.90
2023-05-15T02:01:07.845Z,99.90
2023-05-15T02:03:35.151Z,99.90
2023-05-15T02:06:02.607Z,99.90
2023-05-15T02:08:30.707Z,99.90
2023-05-15T02:10:59.207Z,99.90
2023-05-15T02:13:27.171Z,99.90
2023-05-15T02:15:55.389Z,99.90
2023-05-15T02:18:22.616Z,99.90
2023-05-15T02:20:49.529Z,99.90
2023-05-15T02:23:16.470Z,99.90
2023-05-15T02:25:50.037Z,99.90
2023-05-15T02:28:24.167Z,99.90
2023-05-15T02:30:58.939Z,99.90
2023-05-15T02:33:35.088Z,99.90
2023-05-15T02:36:06.530Z,99.90
2023-05-15T02:38:37.765Z,99.90
2023-05-15T02:41:07.318Z,99.90
2023-05-15T02:43:36.089Z,99.90
2023-05-15T02:46:05.289Z,99.90
2023-05-15T02:48:32.507Z,99.90
2023-05-15T02:50:59.606Z,99.90
2023-05-15T02:53:26.501Z,99.90
2023-05-15T02:55:53.310Z,99.90
2023-05-15T02:58:20.200Z,99.90
2023-05-15T03:00:47.022Z,99.90
2023-05-15T03:03:15.270Z,99.90
2023-05-15T03:05:42.234Z,99.90
2023-05-15T03:08:09.004Z,99.90
2023-05-15T03:10:35.883Z,99.90
2023-05-15T03:13:03.203Z,99.90
2023-05-15T03:15:30.085Z,99.90
2023-05-15T03:17:57.015Z,99.90
2023-05-15T03:20:25.498Z,99.90
2023-05-15T03:22:52.393Z,99.90
2023-05-15T03:25:19.282Z,99.90
2023-05-15T03:27:46.283Z,99.90
2023-05-15T03:30:13.193Z,99.90
2023-05-15T03:32:40.228Z,99.90
2023-05-15T03:35:07.791Z,99.90
2023-05-15T03:37:35.979Z,99.90
2023-05-15T03:40:02.868Z,99.90
2023-05-15T03:42:29.883Z,99.90
2023-05-15T03:44:56.667Z,99.90
2023-05-15T03:47:23.661Z,99.90
2023-05-15T03:49:50.585Z,99.90
2023-05-15T03:52:17.425Z,99.90
2023-05-15T03:54:45.874Z,99.90
2023-05-15T03:57:12.669Z,99.90
2023-05-15T03:59:39.458Z,99.90
2023-05-15T04:02:06.388Z,99.90
2023-05-15T04:04:33.238Z,99.90
2023-05-15T04:07:00.703Z,99.90
2023-05-15T04:09:27.599Z,99.90
2023-05-15T04:11:55.980Z,99.90
2023-05-15T04:14:22.806Z,99.90
2023-05-15T04:16:49.687Z,99.90
2023-05-15T04:19:16.838Z,99.90
2023-05-15T04:21:43.913Z,99.90
2023-05-15T04:24:10.856Z,99.90
2023-05-15T04:26:37.844Z,99.90
2023-05-15T04:29:06.064Z,99.90
2023-05-15T04:31:35.069Z,99.90
2023-05-15T04:34:02.098Z,99.90
2023-05-15T04:36:28.934Z,99.90
2023-05-15T04:38:56.339Z,99.90
2023-05-15T04:41:23.284Z,99.90
2023-05-15T04:43:50.755Z,99.90
2023-05-15T04:46:18.967Z,99.90
2023-05-15T04:48:45.997Z,99.90
2023-05-15T04:51:12.778Z,99.90
2023-05-15T04:53:40.048Z,99.90
2023-05-15T04:56:07.231Z,99.90
2023-05-15T04:58:34.719Z,99.90
2023-05-15T05:01:03.873Z,99.90
2023-05-15T05:03:32.548Z,99.90
2023-05-15T05:05:59.828Z,99.90
2023-05-15T05:08:26.666Z,99.90
2023-05-15T05:10:56.329Z,99.90
2023-05-15T05:13:23.144Z,99.90
2023-05-15T05:15:49.978Z,99.90
2023-05-15T05:18:16.782Z,99.90
2023-05-15T05:20:44.958Z,99.90
2023-05-15T05:23:11.778Z,99.90
2023-05-15T05:25:38.520Z,99.90
2023-05-15T05:28:05.414Z,99.90
2023-05-15T05:30:32.264Z,99.90
2023-05-15T05:32:59.187Z,99.90
2023-05-15T05:35:27.813Z,99.90
2023-05-15T05:37:56.102Z,99.90
2023-05-15T05:40:23.152Z,99.90
2023-05-15T05:42:50.000Z,99.90
2023-05-15T05:45:16.931Z,99.90
2023-05-15T05:47:43.781Z,99.90
2023-05-15T05:50:11.071Z,99.90
2023-05-15T05:52:37.993Z,99.90
2023-05-15T05:55:06.894Z,99.90
2023-05-15T05:57:33.848Z,99.90
2023-05-15T06:00:00.912Z,99.90
2023-05-15T06:02:28.046Z,99.90
2023-05-15T06:04:54.966Z,99.90
2023-05-15T06:07:22.190Z,99.90
2023-05-15T06:09:49.075Z,99.90
2023-05-15T06:12:17.299Z,99.90
2023-05-15T06:14:44.648Z,99.90
2023-05-15T06:17:11.649Z,99.90
2023-05-15T06:19:38.448Z,99.90
2023-05-15T06:22:05.566Z,99.90
2023-05-15T06:24:32.418Z,99.90
2023-05-15T06:26:59.790Z,99.90
2023-05-15T06:29:28.082Z,99.90
2023-05-15T06:31:54.941Z,99.90
2023-05-15T06:34:21.779Z,99.90
2023-05-15T06:36:48.651Z,99.90
2023-05-15T06:39:15.493Z,99.90
2023-05-15T06:41:42.362Z,99.90
2023-05-15T06:44:09.258Z,99.90
2023-05-15T06:46:37.508Z,99.90
2023-05-15T06:49:04.386Z,99.90
2023-05-15T06:51:31.631Z,99.90
2023-05-15T06:53:58.607Z,99.90
2023-05-15T06:56:25.577Z,99.90
2023-05-15T06:58:52.474Z,99.90
2023-05-15T07:01:19.254Z,99.90
2023-05-15T07:03:47.530Z,99.90
2023-05-15T07:06:14.430Z,99.90
2023-05-15T07:08:41.518Z,99.90
2023-05-15T07:11:08.423Z,99.90
2023-05-15T07:13:35.357Z,99.90
2023-05-15T07:16:03.293Z,99.90
2023-05-15T07:18:30.422Z,99.90
2023-05-15T07:20:58.720Z,99.90
2023-05-15T07:23:25.613Z,99.90
2023-05-15T07:25:54.050Z,99.90
2023-05-15T07:28:21.024Z,99.90
2023-05-15T07:30:48.725Z,99.90
2023-05-15T07:33:16.006Z,99.90
2023-05-15T07:35:42.954Z,99.90
2023-05-15T07:38:12.066Z,99.90
2023-05-15T07:40:39.043Z,99.90
2023-05-15T07:43:05.931Z,99.90
2023-05-15T07:45:32.866Z,99.90
2023-05-15T07:48:12.748Z,99.90
2023-05-15T07:50:39.600Z,99.90
2023-05-15T07:53:06.546Z,99.90
2023-05-15T07:55:34.857Z,99.90
2023-05-15T07:58:01.675Z,99.90
2023-05-15T08:00:28.573Z,99.90
2023-05-15T08:02:55.737Z,99.90
2023-05-15T08:05:22.821Z,99.90
2023-05-15T08:07:49.870Z,99.90
2023-05-15T08:10:16.754Z,99.80
2023-05-15T08:12:47.098Z,99.60
2023-05-15T08:15:14.573Z,99.70
2023-05-15T08:17:41.669Z,99.20
2023-05-15T08:20:09.640Z,99.20
2023-05-15T08:22:36.619Z,98.90
2023-05-15T08:25:03.946Z,98.80
2023-05-15T08:27:30.921Z,98.70
2023-05-15T08:29:59.208Z,98.50
2023-05-15T08:32:27.256Z,98.30
2023-05-15T08:34:54.289Z,98.10
2023-05-15T08:37:21.426Z,97.90
2023-05-15T08:39:48.492Z,97.90
2023-05-15T08:42:20.986Z,97.70
2023-05-15T08:44:48.128Z,97.50
2023-05-15T08:47:16.909Z,97.30
2023-05-15T08:49:51.351Z,97.10
2023-05-15T08:52:18.672Z,97.10
2023-05-15T08:54:48.380Z,97.00
2023-05-15T08:57:16.878Z,96.90
2023-05-15T08:59:43.778Z,96.80
2023-05-15T09:02:10.787Z,96.70
2023-05-15T09:04:40.811Z,96.60
2023-05-15T09:07:09.686Z,96.50
2023-05-15T09:09:37.230Z,96.30
2023-05-15T09:12:07.552Z,96.00
2023-05-15T09:14:34.540Z,95.80
2023-05-15T09:17:01.773Z,95.50
2023-05-15T09:19:29.025Z,95.20
2023-05-15T09:22:16.967Z,94.80
2023-05-15T09:24:48.164Z,94.60
2023-05-15T09:27:15.335Z,94.70
2023-05-15T09:29:42.345Z,94.70
2023-05-15T09:32:11.735Z,94.60
2023-05-15T09:34:40.639Z,94.40
2023-05-15T09:37:10.866Z,94.10
2023-05-15T09:39:42.734Z,94.20
2023-05-15T09:42:11.365Z,94.40
2023-05-15T09:44:41.954Z,94.50
2023-05-15T09:47:09.925Z,94.60
2023-05-15T09:49:37.185Z,94.50
2023-05-15T09:52:07.136Z,94.60
2023-05-15T09:54:36.760Z,94.80
2023-05-15T09:57:14.256Z,94.90
2023-05-15T09:59:45.588Z,94.80
2023-05-15T10:02:14.935Z,94.80
2023-05-15T10:04:42.024Z,94.80
2023-05-15T10:07:10.246Z,94.80
2023-05-15T10:09:38.564Z,95.00
2023-05-15T10:12:08.225Z,95.20
2023-05-15T10:14:35.259Z,95.20
2023-05-15T10:17:02.502Z,95.00
2023-05-15T10:19:30.572Z,94.90
2023-05-15T10:21:59.779Z,94.90
2023-05-15T10:24:30.719Z,94.70
2023-05-15T10:26:59.525Z,94.80
2023-05-15T10:29:28.894Z,94.90
2023-05-15T10:31:56.184Z,94.80
2023-05-15T10:34:25.031Z,94.60
2023-05-15T10:36:52.556Z,94.50
2023-05-15T10:39:19.801Z,94.50
2023-05-15T10:41:47.422Z,94.60
2023-05-15T10:44:16.741Z,94.70
2023-05-15T10:46:44.602Z,94.90
2023-05-15T10:49:11.576Z,94.90
2023-05-15T10:51:40.304Z,94.70
2023-05-15T10:54:09.528Z,94.80
2023-05-15T10:56:39.729Z,94.90
2023-05-15T10:59:10.770Z,94.60
2023-05-15T11:01:40.212Z,94.70
2023-05-15T11:04:12.064Z,94.60
2023-05-15T11:06:40.389Z,94.50
2023-05-15T11:09:36.213Z,94.50
2023-05-15T11:12:04.178Z,94.30
2023-05-15T11:14:32.022Z,94.50
2023-05-15T11:17:03.864Z,94.70
2023-05-15T11:19:35.901Z,94.70
2023-05-15T11:22:15.957Z,94.60
2023-05-15T11:24:51.794Z,94.70
2023-05-15T11:27:20.760Z,94.70
2023-05-15T11:30:06.998Z,94.50
2023-05-15T11:32:49.451Z,94.20
2023-05-15T11:35:22.197Z,94.00
2023-05-15T11:37:50.938Z,93.70
2023-05-15T11:40:22.812Z,93.50
2023-05-15T11:43:03.592Z,92.90
2023-05-15T11:45:32.234Z,92.20
2023-05-15T11:48:03.637Z,92.00
2023-05-15T11:50:32.956Z,92.00
2023-05-15T11:53:06.380Z,92.00
2023-05-15T11:55:34.926Z,91.90
2023-05-15T11:58:02.016Z,91.80
2023-05-15T12:00:28.911Z,91.90
2023-05-15T12:02:56.125Z,91.90
2023-05-15T12:05:24.798Z,91.80
2023-05-15T12:07:52.390Z,91.60
2023-05-15T12:10:19.384Z,91.60
2023-05-15T12:12:46.834Z,91.60
2023-05-15T12:15:15.477Z,91.80
2023-05-15T12:17:43.651Z,91.80
2023-05-15T12:20:14.663Z,91.80
2023-05-15T12:22:43.066Z,91.80
2023-05-15T12:25:11.490Z,91.70
2023-05-15T12:27:39.580Z,91.70
2023-05-15T12:30:07.943Z,91.50
2023-05-15T12:32:36.701Z,91.30
2023-05-15T12:35:05.225Z,91.20
2023-05-15T12:37:33.838Z,91.30
2023-05-15T12:40:07.318Z,91.20
2023-05-15T12:42:39.244Z,91.20
2023-05-15T12:45:12.900Z,91.30
2023-05-15T12:47:40.703Z,91.40
2023-05-15T12:50:14.468Z,91.40
2023-05-15T12:52:41.493Z,91.50
2023-05-15T12:55:16.079Z,91.50
2023-05-15T12:57:43.381Z,91.70
2023-05-15T13:00:12.621Z,91.70
2023-05-15T13:02:42.482Z,91.80
2023-05-15T13:05:09.748Z,91.70
2023-05-15T13:07:36.687Z,91.60
2023-05-15T13:10:06.640Z,91.60
2023-05-15T13:12:40.262Z,91.40
2023-05-15T13:15:08.113Z,90.70
2023-05-15T13:17:35.559Z,90.70
2023-05-15T13:20:02.525Z,91.10
2023-05-15T13:22:30.043Z,92.00
2023-05-15T13:24:57.252Z,92.80
2023-05-15T13:27:24.121Z,93.70
2023-05-15T13:29:52.344Z,94.40
2023-05-15T13:32:19.312Z,95.00
2023-05-15T13:34:46.207Z,95.60
2023-05-15T13:37:13.094Z,96.20
2023-05-15T13:39:39.946Z,96.60
2023-05-15T13:42:07.347Z,97.10
2023-05-15T13:44:35.774Z,97.50
2023-05-15T13:47:04.459Z,97.80
2023-05-15T13:49:31.987Z,98.10
2023-05-15T13:51:59.195Z,98.30
2023-05-15T13:54:26.100Z,98.70
2023-05-15T13:56:53.369Z,99.10
2023-05-15T13:59:20.256Z,99.50
2023-05-15T14:01:47.498Z,99.70
2023-05-15T14:04:15.766Z,99.80
2023-05-15T14:06:42.626Z,99.90
2023-05-15T14:09:09.502Z,99.90
2023-05-15T14:11:36.412Z,99.90
2023-05-15T14:14:03.917Z,99.90
2023-05-15T14:16:30.777Z,99.90
2023-05-15T14:18:58.120Z,99.90
2023-05-15T14:21:26.346Z,99.90
2023-05-15T14:23:53.160Z,99.90
2023-05-15T14:26:20.354Z,99.90
2023-05-15T14:28:47.281Z,99.90
2023-05-15T14:31:14.181Z,99.90
2023-05-15T14:33:41.217Z,99.90
2023-05-15T14:36:08.274Z,99.90
2023-05-15T14:38:38.419Z,99.90
2023-05-15T14:41:05.329Z,99.90
2023-05-15T14:43:32.157Z,99.90
2023-05-15T14:45:59.114Z,99.90
2023-05-15T14:48:26.001Z,99.90
2023-05-15T14:50:52.848Z,99.90
2023-05-15T14:53:19.723Z,99.90
2023-05-15T14:55:47.996Z,99.90
2023-05-15T14:58:15.152Z,99.90
2023-05-15T15:00:42.021Z,99.90
2023-05-15T15:03:08.996Z,99.90
2023-05-15T15:05:35.889Z,99.90
2023-05-15T15:08:04.754Z,99.90
2023-05-15T15:10:32.729Z,99.90
2023-05-15T15:13:01.366Z,99.90
2023-05-15T15:15:29.115Z,99.90
2023-05-15T15:17:57.574Z,99.90
2023-05-15T15:20:26.399Z,99.90
2023-05-15T15:22:54.211Z,99.90
2023-05-15T15:25:21.663Z,99.90
2023-05-15T15:27:49.309Z,99.90
2023-05-15T15:30:17.653Z,99.90
2023-05-15T15:32:45.375Z,99.90
2023-05-15T15:35:13.056Z,99.90
2023-05-15T15:37:39.967Z,99.90
2023-05-15T15:40:08.442Z,99.90
2023-05-15T15:42:35.587Z,99.90
2023-05-15T15:45:02.700Z,99.90
2023-05-15T15:47:31.989Z,99.90
2023-05-15T15:49:59.215Z,99.90
2023-05-15T15:52:26.494Z,99.90
2023-05-15T15:54:53.534Z,99.90
2023-05-15T15:57:21.165Z,99.90
2023-05-15T15:59:49.208Z,99.90
2023-05-15T16:02:17.137Z,99.90
2023-05-15T16:04:45.279Z,99.90
2023-05-15T16:07:12.160Z,99.90
2023-05-15T16:09:38.975Z,99.90
2023-05-15T16:12:06.193Z,99.90
2023-05-15T16:14:33.041Z,99.90
2023-05-15T16:17:02.595Z,99.90
2023-05-15T16:19:30.408Z,99.90
2023-05-15T16:21:58.756Z,99.90
2023-05-15T16:24:26.404Z,99.90
2023-05-15T16:26:53.250Z,99.90
2023-05-15T16:29:20.035Z,99.90
2023-05-15T16:31:47.093Z,99.90
2023-05-15T16:34:15.196Z,99.90
2023-05-15T16:36:43.071Z,99.90
2023-05-15T16:39:11.417Z,99.90
2023-05-15T16:41:38.284Z,99.90
2023-05-15T16:44:10.607Z,99.90
2023-05-15T16:46:38.114Z,99.90
2023-05-15T16:49:05.414Z,99.90
2023-05-15T16:51:33.478Z,99.90
2023-05-15T16:54:00.383Z,99.90
2023-05-15T16:56:29.013Z,99.90
2023-05-15T16:58:55.822Z,99.90
2023-05-15T17:01:22.921Z,99.90
2023-05-15T17:03:49.982Z,99.90
2023-05-15T17:06:17.140Z,99.90
2023-05-15T17:08:46.122Z,99.90
2023-05-15T17:11:13.432Z,99.90
2023-05-15T17:13:41.729Z,99.90
2023-05-15T17:16:08.781Z,99.90
2023-05-15T17:18:35.846Z,99.90
2023-05-15T17:21:02.817Z,99.90
2023-05-15T17:23:29.623Z,99.90
2023-05-15T17:25:56.446Z,99.90
2023-05-15T17:28:23.274Z,99.90
2023-05-15T17:30:51.484Z,99.90
2023-05-15T17:33:18.291Z,99.90
2023-05-15T17:35:45.527Z,99.90
2023-05-15T17:38:12.360Z,99.90
2023-05-15T17:40:39.231Z,99.90
2023-05-15T17:43:06.253Z,99.90
2023-05-15T17:45:33.950Z,99.90
2023-05-15T17:48:04.052Z,99.90
2023-05-15T17:50:31.003Z,99.90
2023-05-15T17:52:57.839Z,99.90
2023-05-15T17:55:25.050Z,99.90
2023-05-15T17:57:52.376Z,99.90
2023-05-15T18:00:19.588Z,99.90
2023-05-15T18:02:46.542Z,99.90
2023-05-15T18:05:14.868Z,99.90
2023-05-15T18:07:42.375Z,99.90
2023-05-15T18:10:09.849Z,99.90
2023-05-15T18:12:36.691Z,99.90
2023-05-15T18:15:04.130Z,99.90
2023-05-15T18:17:31.021Z,99.90
2023-05-15T18:19:57.904Z,99.90
2023-05-15T18:22:27.183Z,99.90
2023-05-15T18:24:54.048Z,99.90
2023-05-15T18:27:21.497Z,99.90
2023-05-15T18:29:49.663Z,99.90
2023-05-15T18:32:16.693Z,99.90
2023-05-15T18:34:43.862Z,99.90
2023-05-15T18:37:10.936Z,99.90
2023-05-15T18:39:39.552Z,99.90
2023-05-15T18:42:07.070Z,99.90
2023-05-15T18:44:35.955Z,99.90
2023-05-15T18:47:03.469Z,99.90
2023-05-15T18:49:30.535Z,99.90
2023-05-15T18:51:57.984Z,99.90
2023-05-15T18:54:26.208Z,99.90
2023-05-15T18:56:54.543Z,99.90
2023-05-15T18:59:21.480Z,99.90
2023-05-15T19:01:49.445Z,99.90
2023-05-15T19:04:16.415Z,99.90
2023-05-15T19:06:43.771Z,99.90
2023-05-15T19:09:10.655Z,99.90
2023-05-15T19:11:37.758Z,99.90
2023-05-15T19:14:06.064Z,99.90
2023-05-15T19:16:33.316Z,99.90
2023-05-15T19:19:00.290Z,99.90
2023-05-15T19:21:27.261Z,99.90
2023-05-15T19:23:54.111Z,99.90
2023-05-15T19:26:21.772Z,99.90
2023-05-15T19:28:49.092Z,99.90
2023-05-15T19:31:30.271Z,99.90
2023-05-15T19:33:58.676Z,99.90
2023-05-15T19:36:25.879Z,99.90
2023-05-15T19:38:53.024Z,99.90
2023-05-15T19:41:19.917Z,99.90
2023-05-15T19:43:50.499Z,99.90
2023-05-15T19:46:19.017Z,99.90
2023-05-15T19:48:46.240Z,99.90
2023-05-15T19:51:13.309Z,99.90
2023-05-15T19:53:41.284Z,99.90
2023-05-15T19:56:08.397Z,99.90
2023-05-15T19:58:35.366Z,99.90
2023-05-15T20:01:02.889Z,99.90
2023-05-15T20:03:32.778Z,99.90
2023-05-15T20:06:01.037Z,99.90
2023-05-15T20:08:28.393Z,99.90
2023-05-15T20:10:55.492Z,99.90
2023-05-15T20:13:22.961Z,99.90
2023-05-15T20:15:57.075Z,99.90
2023-05-15T20:18:24.318Z,99.90
2023-05-15T20:20:55.226Z,99.90
2023-05-15T20:23:22.243Z,99.90
2023-05-15T20:25:50.752Z,99.90
2023-05-15T20:28:17.884Z,99.90
2023-05-15T20:30:47.225Z,99.90
2023-05-15T20:33:14.318Z,99.90
2023-05-15T20:35:43.364Z,99.90
2023-05-15T20:38:12.147Z,99.90
2023-05-15T20:40:39.083Z,99.90
2023-05-15T20:43:05.949Z,99.90
2023-05-15T20:45:32.994Z,99.90
2023-05-15T20:48:00.007Z,99.90
2023-05-15T20:50:27.205Z,99.90
2023-05-15T20:52:54.511Z,99.90
2023-05-15T20:55:22.819Z,99.90
2023-05-15T20:57:50.564Z,99.90
2023-05-15T21:00:18.665Z,99.90
2023-05-15T21:02:46.719Z,99.90
2023-05-15T21:05:14.003Z,99.90
2023-05-15T21:07:41.009Z,99.90
2023-05-15T21:10:09.146Z,99.90
2023-05-15T21:12:37.377Z,99.90
2023-05-15T21:15:05.685Z,99.90
2023-05-15T21:17:32.580Z,99.90
2023-05-15T21:20:00.996Z,99.90
2023-05-15T21:22:27.863Z,99.90
2023-05-15T21:24:54.771Z,99.90
2023-05-15T21:27:21.518Z,99.90
2023-05-15T21:29:49.713Z,99.90
2023-05-15T21:32:16.698Z,99.90
2023-05-15T21:34:43.504Z,99.90
2023-05-15T21:37:10.838Z,99.90
2023-05-15T21:39:37.621Z,99.90
2023-05-15T21:42:05.289Z,99.90
2023-05-15T21:44:32.136Z,99.90
2023-05-15T21:47:00.318Z,99.90
2023-05-15T21:49:27.146Z,99.90
2023-05-15T21:51:53.976Z,99.90
2023-05-15T21:54:21.006Z,99.90
2023-05-15T21:56:47.797Z,99.90
2023-05-15T21:59:14.761Z,99.90
2023-05-15T22:01:41.584Z,99.90
2023-05-15T22:04:09.911Z,99.90
2023-05-15T22:06:36.851Z,99.90
2023-05-15T22:09:03.657Z,99.90
2023-05-15T22:11:30.467Z,99.90
2023-05-15T22:13:57.601Z,99.90
2023-05-15T22:16:24.673Z,99.90
2023-05-15T22:18:53.840Z,99.90
2023-05-15T22:21:22.168Z,99.90
2023-05-15T22:23:49.087Z,99.90
2023-05-15T22:26:15.906Z,99.90
2023-05-15T22:28:42.818Z,99.90
2023-05-15T22:31:09.765Z,99.90
2023-05-15T22:33:36.828Z,99.90
2023-05-15T22:36:03.955Z,99.90
2023-05-15T22:38:32.206Z,99.90
2023-05-15T22:40:59.042Z,99.90
2023-05-15T22:43:25.958Z,99.90
2023-05-15T22:45:52.845Z,99.90
2023-05-15T22:48:19.671Z,99.90
2023-05-15T22:50:46.492Z,99.90
2023-05-15T22:53:13.376Z,99.90
2023-05-15T22:55:41.634Z,99.90
2023-05-15T22:58:08.543Z,99.90
2023-05-15T23:00:35.809Z,99.90
2023-05-15T23:03:02.653Z,99.90
2023-05-15T23:05:29.688Z,99.90
2023-05-15T23:07:56.591Z,99.90
2023-05-15T23:10:23.421Z,99.90
2023-05-15T23:12:52.128Z,99.90
2023-05-15T23:15:19.207Z,99.90
2023-05-15T23:17:46.056Z,99.90
2023-05-15T23:20:13.514Z,99.90
2023-05-15T23:22:40.449Z,99.90
2023-05-15T23:25:08.638Z,99.90
2023-05-15T23:27:35.566Z,99.90
2023-05-15T23:30:04.432Z,99.90
2023-05-15T23:32:31.599Z,99.90
2023-05-15T23:34:59.358Z,99.90
2023-05-15T23:37:26.180Z,99.90
2023-05-15T23:39:55.168Z,99.90
2023-05-15T23:42:22.957Z,99.90
2023-05-15T23:44:51.165Z,99.90
2023-05-15T23:47:19.422Z,99.90
2023-05-15T23:49:46.311Z,99.90
2023-05-15T23:52:13.117Z,99.90
2023-05-15T23:54:40.496Z,99.90
2023-05-15T23:57:07.415Z,99.90
2023-05-15T23:59:34.254Z,99.90
